PWSweather.com
Personal Weather Stations
Station Observations
WATERF01
WaterfordIE

WaterfordIE

Lat: 52.2412507, Lon: -7.1414691

Elevation: 65

Station Type: Davis Vantage Vue

www.waterfordweather.com

High Low Average
Temperature 65.9°F18.8°C 53.4°F11.9°C 60.0°F15.6°C
Dew Point 60.5°F15.8°C 50.5°F10.3°C 55.5°F13.1°C
Winds 16.1 mph 25.9 kmh Calm Calm 6.0 mph W9.7 kmh W
Wind Gusts 26.5 mph42.6 kmh -- 11.0 mph17.7 kmh
Humidity 91% 76% 85%
Pressure 29.77 in1008.1 mb 29.70 in1005.8 mb -
Precipitation 0.07 in1.8 mm - -
Hour Temp Dew Point Humidity Winds Wind Gusts Pressure Precip Precip Rate Daily Precip Total
12:00 AM 59.8°F15.4°C 56.9°F13.8°C 90% Calm Calm 4.6 mph7.4 kmh 29.74 in1007.1 mb - 0.00 in0.0 mm 0.00 in0.0 mm
12:10 AM 59.7°F15.4°C 56.8°F13.8°C 90% 2.3 mph WNW3.7 kmh WNW 5.8 mph9.3 kmh 29.74 in1007.1 mb - 0.00 in0.0 mm 0.00 in0.0 mm
12:20 AM 59.7°F15.4°C 56.8°F13.8°C 90% 4.6 mph W7.4 kmh W 6.9 mph11.1 kmh 29.73 in1006.8 mb - 0.00 in0.0 mm 0.00 in0.0 mm
12:30 AM 59.6°F15.3°C 56.7°F13.7°C 90% 1.2 mph WSW1.9 kmh WSW 4.6 mph7.4 kmh 29.74 in1007.1 mb - 0.00 in0.0 mm 0.00 in0.0 mm
12:40 AM 59.3°F15.2°C 56.4°F13.6°C 90% 1.2 mph WNW1.9 kmh WNW 2.3 mph3.7 kmh 29.73 in1006.8 mb - 0.00 in0.0 mm 0.00 in0.0 mm
12:50 AM 59.1°F15.1°C 56.2°F13.4°C 90% Calm Calm -- 29.73 in1006.8 mb - 0.00 in0.0 mm 0.00 in0.0 mm
01:00 AM 59.0°F15.0°C 56.1°F13.4°C 90% 2.3 mph W3.7 kmh W 4.6 mph7.4 kmh 29.74 in1007.1 mb - 0.00 in0.0 mm 0.00 in0.0 mm
01:10 AM 58.8°F14.9°C 55.9°F13.3°C 90% 2.3 mph W3.7 kmh W 5.8 mph9.3 kmh 29.74 in1007.1 mb - 0.00 in0.0 mm 0.00 in0.0 mm
01:20 AM 58.5°F14.7°C 55.9°F13.3°C 91% 1.2 mph SW1.9 kmh SW 2.3 mph3.7 kmh 29.74 in1007.1 mb - 0.00 in0.0 mm 0.00 in0.0 mm
01:30 AM 58.3°F14.6°C 55.7°F13.2°C 91% 1.2 mph WSW1.9 kmh WSW 2.3 mph3.7 kmh 29.74 in1007.1 mb - 0.00 in0.0 mm 0.00 in0.0 mm
01:40 AM 58.1°F14.5°C 55.4°F13.0°C 91% 1.2 mph WSW1.9 kmh WSW 2.3 mph3.7 kmh 29.74 in1007.1 mb - 0.00 in0.0 mm 0.00 in0.0 mm
01:50 AM 57.6°F14.2°C 55.0°F12.8°C 91% Calm Calm 2.3 mph3.7 kmh 29.74 in1007.1 mb - 0.00 in0.0 mm 0.00 in0.0 mm
02:00 AM 57.2°F14.0°C 54.6°F12.6°C 91% Calm Calm -- 29.74 in1007.1 mb - 0.00 in0.0 mm 0.00 in0.0 mm
02:10 AM 57.0°F13.9°C 54.4°F12.4°C 91% Calm Calm -- 29.74 in1007.1 mb - 0.00 in0.0 mm 0.00 in0.0 mm
02:20 AM 56.8°F13.8°C 54.2°F12.3°C 91% Calm Calm -- 29.74 in1007.1 mb - 0.00 in0.0 mm 0.00 in0.0 mm
02:30 AM 56.7°F13.7°C 54.1°F12.3°C 91% Calm Calm -- 29.74 in1007.1 mb - 0.00 in0.0 mm 0.00 in0.0 mm
02:40 AM 56.3°F13.5°C 53.7°F12.1°C 91% Calm Calm -- 29.74 in1007.1 mb - 0.00 in0.0 mm 0.00 in0.0 mm
02:50 AM 56.1°F13.4°C 53.5°F11.9°C 91% Calm Calm 2.3 mph3.7 kmh 29.74 in1007.1 mb - 0.00 in0.0 mm 0.00 in0.0 mm
03:00 AM 56.1°F13.4°C 53.5°F11.9°C 91% Calm Calm 1.2 mph1.9 kmh 29.74 in1007.1 mb - 0.00 in0.0 mm 0.00 in0.0 mm
03:10 AM 55.8°F13.2°C 53.3°F11.8°C 91% Calm Calm -- 29.74 in1007.1 mb - 0.00 in0.0 mm 0.00 in0.0 mm
03:20 AM 55.7°F13.2°C 53.1°F11.7°C 91% Calm Calm 2.3 mph3.7 kmh 29.74 in1007.1 mb - 0.00 in0.0 mm 0.00 in0.0 mm
03:30 AM 55.7°F13.2°C 53.1°F11.7°C 91% Calm Calm -- 29.74 in1007.1 mb - 0.00 in0.0 mm 0.00 in0.0 mm
03:40 AM 55.3°F12.9°C 52.7°F11.5°C 91% Calm Calm -- 29.74 in1007.1 mb - 0.00 in0.0 mm 0.00 in0.0 mm
03:50 AM 55.0°F12.8°C 52.4°F11.3°C 91% Calm Calm -- 29.74 in1007.1 mb - 0.00 in0.0 mm 0.00 in0.0 mm
04:00 AM 54.5°F12.5°C 51.9°F11.1°C 91% 1.2 mph W1.9 kmh W 4.6 mph7.4 kmh 29.74 in1007.1 mb - 0.00 in0.0 mm 0.00 in0.0 mm
04:10 AM 54.4°F12.4°C 51.8°F11.0°C 91% Calm Calm 2.3 mph3.7 kmh 29.75 in1007.5 mb - 0.00 in0.0 mm 0.00 in0.0 mm
04:20 AM 54.2°F12.3°C 51.6°F10.9°C 91% Calm Calm -- 29.74 in1007.1 mb - 0.00 in0.0 mm 0.00 in0.0 mm
04:30 AM 54.0°F12.2°C 51.4°F10.8°C 91% Calm Calm -- 29.75 in1007.5 mb - 0.00 in0.0 mm 0.00 in0.0 mm
04:40 AM 53.6°F12.0°C 51.1°F10.6°C 91% 2.3 mph W3.7 kmh W 5.8 mph9.3 kmh 29.75 in1007.5 mb - 0.00 in0.0 mm 0.00 in0.0 mm
04:50 AM 53.4°F11.9°C 50.8°F10.4°C 91% 2.3 mph WSW3.7 kmh WSW 5.8 mph9.3 kmh 29.75 in1007.5 mb - 0.00 in0.0 mm 0.00 in0.0 mm
05:00 AM 53.4°F11.9°C 50.8°F10.4°C 91% 1.2 mph W1.9 kmh W 4.6 mph7.4 kmh 29.75 in1007.5 mb - 0.00 in0.0 mm 0.00 in0.0 mm
05:10 AM 53.4°F11.9°C 50.8°F10.4°C 91% 3.5 mph SW5.6 kmh SW 8.1 mph13.0 kmh 29.75 in1007.5 mb - 0.00 in0.0 mm 0.00 in0.0 mm
05:20 AM 53.4°F11.9°C 50.8°F10.4°C 91% 3.5 mph W5.6 kmh W 6.9 mph11.1 kmh 29.75 in1007.5 mb - 0.00 in0.0 mm 0.00 in0.0 mm
05:30 AM 53.4°F11.9°C 50.8°F10.4°C 91% Calm Calm 1.2 mph1.9 kmh 29.76 in1007.8 mb - 0.00 in0.0 mm 0.00 in0.0 mm
05:40 AM 53.4°F11.9°C 50.8°F10.4°C 91% Calm Calm -- 29.76 in1007.8 mb - 0.00 in0.0 mm 0.00 in0.0 mm
05:50 AM 53.4°F11.9°C 50.8°F10.4°C 91% 1.2 mph WNW1.9 kmh WNW 2.3 mph3.7 kmh 29.76 in1007.8 mb - 0.00 in0.0 mm 0.00 in0.0 mm
06:00 AM 53.7°F12.1°C 51.1°F10.6°C 91% Calm Calm -- 29.77 in1008.1 mb - 0.00 in0.0 mm 0.00 in0.0 mm
06:10 AM 54.1°F12.3°C 51.6°F10.9°C 91% Calm Calm -- 29.77 in1008.1 mb - 0.00 in0.0 mm 0.00 in0.0 mm
06:20 AM 55.0°F12.8°C 52.4°F11.3°C 91% Calm Calm -- 29.77 in1008.1 mb - 0.00 in0.0 mm 0.00 in0.0 mm
06:30 AM 55.5°F13.1°C 52.9°F11.6°C 91% 2.3 mph SSW3.7 kmh SSW 4.6 mph7.4 kmh 29.77 in1008.1 mb - 0.00 in0.0 mm 0.00 in0.0 mm
06:40 AM 55.6°F13.1°C 53.0°F11.7°C 91% 1.2 mph NW1.9 kmh NW 2.3 mph3.7 kmh 29.77 in1008.1 mb - 0.00 in0.0 mm 0.00 in0.0 mm
06:50 AM 56.2°F13.4°C 53.6°F12.0°C 91% 3.5 mph SW5.6 kmh SW 5.8 mph9.3 kmh 29.77 in1008.1 mb - 0.00 in0.0 mm 0.00 in0.0 mm
07:00 AM 55.8°F13.2°C 53.2°F11.8°C 91% 3.5 mph ESE5.6 kmh ESE 5.8 mph9.3 kmh 29.76 in1007.8 mb - 0.00 in0.0 mm 0.00 in0.0 mm
07:10 AM 55.8°F13.2°C 53.2°F11.8°C 91% Calm Calm -- 29.77 in1008.1 mb - 0.00 in0.0 mm 0.00 in0.0 mm
07:20 AM 56.1°F13.4°C 53.5°F11.9°C 91% Calm Calm -- 29.77 in1008.1 mb - 0.00 in0.0 mm 0.00 in0.0 mm
07:30 AM 56.4°F13.6°C 53.9°F12.2°C 91% Calm Calm -- 29.77 in1008.1 mb - 0.00 in0.0 mm 0.00 in0.0 mm
07:40 AM 56.9°F13.8°C 54.3°F12.4°C 91% 2.3 mph SW3.7 kmh SW 4.6 mph7.4 kmh 29.77 in1008.1 mb - 0.00 in0.0 mm 0.00 in0.0 mm
07:50 AM 57.6°F14.2°C 55.0°F12.8°C 91% 1.2 mph NW1.9 kmh NW 2.3 mph3.7 kmh 29.77 in1008.1 mb - 0.00 in0.0 mm 0.00 in0.0 mm
08:00 AM 58.2°F14.6°C 55.6°F13.1°C 91% 4.6 mph WSW7.4 kmh WSW 6.9 mph11.1 kmh 29.77 in1008.1 mb - 0.00 in0.0 mm 0.00 in0.0 mm
08:10 AM 58.6°F14.8°C 56.0°F13.3°C 91% 5.8 mph NW9.3 kmh NW 12.7 mph20.4 kmh 29.77 in1008.1 mb - 0.00 in0.0 mm 0.00 in0.0 mm
08:20 AM 58.9°F14.9°C 56.3°F13.5°C 91% 6.9 mph SW11.1 kmh SW 11.5 mph18.5 kmh 29.76 in1007.8 mb - 0.00 in0.0 mm 0.00 in0.0 mm
08:30 AM 59.1°F15.1°C 56.5°F13.6°C 91% 4.6 mph W7.4 kmh W 9.2 mph14.8 kmh 29.76 in1007.8 mb - 0.00 in0.0 mm 0.00 in0.0 mm
08:40 AM 59.4°F15.2°C 56.8°F13.8°C 91% 8.1 mph SW13.0 kmh SW 11.5 mph18.5 kmh 29.76 in1007.8 mb - 0.00 in0.0 mm 0.00 in0.0 mm
08:50 AM 59.8°F15.4°C 57.1°F13.9°C 91% 5.8 mph NW9.3 kmh NW 13.8 mph22.2 kmh 29.76 in1007.8 mb - 0.00 in0.0 mm 0.00 in0.0 mm
09:00 AM 59.9°F15.5°C 57.3°F14.1°C 91% 5.8 mph SW9.3 kmh SW 8.1 mph13.0 kmh 29.76 in1007.8 mb - 0.00 in0.0 mm 0.00 in0.0 mm
09:10 AM 60.2°F15.7°C 57.5°F14.2°C 91% 6.9 mph WSW11.1 kmh WSW 11.5 mph18.5 kmh 29.75 in1007.5 mb - 0.00 in0.0 mm 0.00 in0.0 mm
09:20 AM 60.5°F15.8°C 57.9°F14.4°C 91% 8.1 mph WSW13.0 kmh WSW 13.8 mph22.2 kmh 29.75 in1007.5 mb - 0.00 in0.0 mm 0.00 in0.0 mm
09:30 AM 61.1°F16.2°C 58.1°F14.5°C 90% 9.2 mph WSW14.8 kmh WSW 13.8 mph22.2 kmh 29.75 in1007.5 mb - 0.00 in0.0 mm 0.00 in0.0 mm
09:40 AM 61.7°F16.5°C 58.7°F14.8°C 90% 10.4 mph W16.7 kmh W 19.6 mph31.5 kmh 29.75 in1007.5 mb - 0.00 in0.0 mm 0.00 in0.0 mm
09:50 AM 62.6°F17.0°C 59.3°F15.2°C 89% 11.5 mph W18.5 kmh W 16.1 mph25.9 kmh 29.75 in1007.5 mb - 0.00 in0.0 mm 0.00 in0.0 mm
10:00 AM 63.5°F17.5°C 59.9°F15.5°C 88% 8.1 mph W13.0 kmh W 13.8 mph22.2 kmh 29.75 in1007.5 mb - 0.00 in0.0 mm 0.00 in0.0 mm
10:10 AM 64.2°F17.9°C 60.3°F15.7°C 87% 6.9 mph WSW11.1 kmh WSW 13.8 mph22.2 kmh 29.75 in1007.5 mb - 0.00 in0.0 mm 0.00 in0.0 mm
10:20 AM 64.8°F18.2°C 60.5°F15.8°C 86% 9.2 mph W14.8 kmh W 19.6 mph31.5 kmh 29.75 in1007.5 mb - 0.00 in0.0 mm 0.00 in0.0 mm
10:30 AM 65.2°F18.4°C 59.9°F15.5°C 83% 9.2 mph W14.8 kmh W 15.0 mph24.1 kmh 29.75 in1007.5 mb - 0.00 in0.0 mm 0.00 in0.0 mm
10:40 AM 64.8°F18.2°C 59.5°F15.3°C 83% 8.1 mph WNW13.0 kmh WNW 13.8 mph22.2 kmh 29.75 in1007.5 mb - 0.00 in0.0 mm 0.00 in0.0 mm
10:50 AM 64.8°F18.2°C 58.8°F14.9°C 81% 10.4 mph WSW16.7 kmh WSW 19.6 mph31.5 kmh 29.75 in1007.5 mb - 0.00 in0.0 mm 0.00 in0.0 mm
11:00 AM 65.1°F18.4°C 59.5°F15.3°C 82% 10.4 mph SW16.7 kmh SW 19.6 mph31.5 kmh 29.75 in1007.5 mb - 0.00 in0.0 mm 0.00 in0.0 mm
11:10 AM 64.9°F18.3°C 59.3°F15.2°C 82% 11.5 mph SSW18.5 kmh SSW 20.7 mph33.3 kmh 29.76 in1007.8 mb - 0.00 in0.0 mm 0.00 in0.0 mm
11:20 AM 64.7°F18.2°C 59.1°F15.1°C 82% 9.2 mph WSW14.8 kmh WSW 18.4 mph29.6 kmh 29.75 in1007.5 mb - 0.00 in0.0 mm 0.00 in0.0 mm
11:30 AM 64.6°F18.1°C 58.6°F14.8°C 81% 13.8 mph WSW22.2 kmh WSW 25.3 mph40.7 kmh 29.75 in1007.5 mb - 0.00 in0.0 mm 0.00 in0.0 mm
11:40 AM 64.9°F18.3°C 59.3°F15.2°C 82% 13.8 mph W22.2 kmh W 20.7 mph33.3 kmh 29.75 in1007.5 mb - 0.00 in0.0 mm 0.00 in0.0 mm
11:50 AM 65.2°F18.4°C 59.2°F15.1°C 81% 9.2 mph W14.8 kmh W 16.1 mph25.9 kmh 29.75 in1007.5 mb - 0.00 in0.0 mm 0.00 in0.0 mm
12:00 PM 65.6°F18.7°C 58.9°F14.9°C 79% 10.4 mph W16.7 kmh W 16.1 mph25.9 kmh 29.75 in1007.5 mb - 0.00 in0.0 mm 0.00 in0.0 mm
12:10 PM 65.8°F18.8°C 59.5°F15.3°C 80% 10.4 mph W16.7 kmh W 16.1 mph25.9 kmh 29.75 in1007.5 mb - 0.00 in0.0 mm 0.00 in0.0 mm
12:20 PM 65.7°F18.7°C 58.7°F14.8°C 78% 11.5 mph NNW18.5 kmh NNW 20.7 mph33.3 kmh 29.75 in1007.5 mb - 0.00 in0.0 mm 0.00 in0.0 mm
12:30 PM 65.9°F18.8°C 58.9°F14.9°C 78% 13.8 mph W22.2 kmh W 19.6 mph31.5 kmh 29.75 in1007.5 mb - 0.00 in0.0 mm 0.00 in0.0 mm
12:40 PM 65.6°F18.7°C 58.6°F14.8°C 78% 13.8 mph WSW22.2 kmh WSW 20.7 mph33.3 kmh 29.75 in1007.5 mb - 0.00 in0.0 mm 0.00 in0.0 mm
12:50 PM 65.5°F18.6°C 58.5°F14.7°C 78% 9.2 mph WNW14.8 kmh WNW 16.1 mph25.9 kmh 29.75 in1007.5 mb - 0.00 in0.0 mm 0.00 in0.0 mm
01:00 PM 65.7°F18.7°C 58.3°F14.6°C 77% 12.7 mph W20.4 kmh W 21.9 mph35.2 kmh 29.75 in1007.5 mb - 0.00 in0.0 mm 0.00 in0.0 mm
01:10 PM 65.3°F18.5°C 57.9°F14.4°C 77% 15.0 mph WSW24.1 kmh WSW 21.9 mph35.2 kmh 29.75 in1007.5 mb - 0.00 in0.0 mm 0.00 in0.0 mm
01:20 PM 65.7°F18.7°C 58.7°F14.8°C 78% 9.2 mph WNW14.8 kmh WNW 16.1 mph25.9 kmh 29.75 in1007.5 mb - 0.00 in0.0 mm 0.00 in0.0 mm
01:30 PM 65.9°F18.8°C 58.1°F14.5°C 76% 12.7 mph W20.4 kmh W 20.7 mph33.3 kmh 29.75 in1007.5 mb - 0.00 in0.0 mm 0.00 in0.0 mm
01:40 PM 65.5°F18.6°C 58.1°F14.5°C 77% 16.1 mph W25.9 kmh W 26.5 mph42.6 kmh 29.75 in1007.5 mb - 0.00 in0.0 mm 0.00 in0.0 mm
01:50 PM 65.5°F18.6°C 58.5°F14.7°C 78% 13.8 mph W22.2 kmh W 21.9 mph35.2 kmh 29.74 in1007.1 mb - 0.00 in0.0 mm 0.00 in0.0 mm
02:00 PM 65.7°F18.7°C 58.6°F14.8°C 78% 11.5 mph WSW18.5 kmh WSW 20.7 mph33.3 kmh 29.74 in1007.1 mb - 0.00 in0.0 mm 0.00 in0.0 mm
02:10 PM 65.7°F18.7°C 58.3°F14.6°C 77% 13.8 mph NW22.2 kmh NW 25.3 mph40.7 kmh 29.74 in1007.1 mb - 0.00 in0.0 mm 0.00 in0.0 mm
02:20 PM 65.7°F18.7°C 58.7°F14.8°C 78% 12.7 mph WSW20.4 kmh WSW 21.9 mph35.2 kmh 29.74 in1007.1 mb - 0.00 in0.0 mm 0.00 in0.0 mm
02:30 PM 64.9°F18.3°C 57.8°F14.3°C 78% 11.5 mph WNW18.5 kmh WNW 16.1 mph25.9 kmh 29.74 in1007.1 mb - 0.00 in0.0 mm 0.00 in0.0 mm
02:40 PM 64.9°F18.3°C 58.2°F14.6°C 79% 12.7 mph W20.4 kmh W 19.6 mph31.5 kmh 29.74 in1007.1 mb - 0.00 in0.0 mm 0.00 in0.0 mm
02:50 PM 64.9°F18.3°C 57.9°F14.4°C 78% 12.7 mph W20.4 kmh W 20.7 mph33.3 kmh 29.74 in1007.1 mb - 0.00 in0.0 mm 0.00 in0.0 mm
03:00 PM 64.8°F18.2°C 58.1°F14.5°C 79% 13.8 mph WSW22.2 kmh WSW 25.3 mph40.7 kmh 29.74 in1007.1 mb - 0.00 in0.0 mm 0.00 in0.0 mm
03:10 PM 65.1°F18.4°C 58.1°F14.5°C 78% 12.7 mph W20.4 kmh W 21.9 mph35.2 kmh 29.73 in1006.8 mb - 0.00 in0.0 mm 0.00 in0.0 mm
03:20 PM 65.2°F18.4°C 57.8°F14.3°C 77% 8.1 mph W13.0 kmh W 13.8 mph22.2 kmh 29.74 in1007.1 mb - 0.00 in0.0 mm 0.00 in0.0 mm
03:30 PM 65.5°F18.6°C 58.1°F14.5°C 77% 11.5 mph WNW18.5 kmh WNW 16.1 mph25.9 kmh 29.74 in1007.1 mb - 0.00 in0.0 mm 0.00 in0.0 mm
03:40 PM 65.4°F18.6°C 58.0°F14.4°C 77% 11.5 mph W18.5 kmh W 19.6 mph31.5 kmh 29.74 in1007.1 mb - 0.00 in0.0 mm 0.00 in0.0 mm
03:50 PM 65.1°F18.4°C 57.7°F14.3°C 77% 11.5 mph WNW18.5 kmh WNW 19.6 mph31.5 kmh 29.74 in1007.1 mb - 0.00 in0.0 mm 0.00 in0.0 mm
04:00 PM 65.0°F18.3°C 58.0°F14.4°C 78% 13.8 mph W22.2 kmh W 21.9 mph35.2 kmh 29.73 in1006.8 mb - 0.00 in0.0 mm 0.00 in0.0 mm
04:10 PM 64.9°F18.3°C 57.9°F14.4°C 78% 16.1 mph W25.9 kmh W 25.3 mph40.7 kmh 29.73 in1006.8 mb - 0.00 in0.0 mm 0.00 in0.0 mm
04:20 PM 64.4°F18.0°C 57.4°F14.1°C 78% 10.4 mph NW16.7 kmh NW 16.1 mph25.9 kmh 29.73 in1006.8 mb - 0.00 in0.0 mm 0.00 in0.0 mm
04:30 PM 64.8°F18.2°C 57.4°F14.1°C 77% 9.2 mph NW14.8 kmh NW 16.1 mph25.9 kmh 29.72 in1006.4 mb - 0.00 in0.0 mm 0.00 in0.0 mm
04:40 PM 64.5°F18.1°C 56.8°F13.8°C 76% 11.5 mph NW18.5 kmh NW 19.6 mph31.5 kmh 29.72 in1006.4 mb - 0.00 in0.0 mm 0.00 in0.0 mm
04:50 PM 64.3°F17.9°C 56.9°F13.8°C 77% 10.4 mph W16.7 kmh W 21.9 mph35.2 kmh 29.72 in1006.4 mb - 0.00 in0.0 mm 0.00 in0.0 mm
05:00 PM 64.0°F17.8°C 57.0°F13.9°C 78% 8.1 mph W13.0 kmh W 16.1 mph25.9 kmh 29.72 in1006.4 mb - 0.00 in0.0 mm 0.00 in0.0 mm
05:10 PM 63.9°F17.7°C 56.9°F13.8°C 78% 10.4 mph WSW16.7 kmh WSW 18.4 mph29.6 kmh 29.72 in1006.4 mb - 0.00 in0.0 mm 0.00 in0.0 mm
05:20 PM 63.7°F17.6°C 56.7°F13.7°C 78% 9.2 mph W14.8 kmh W 18.4 mph29.6 kmh 29.72 in1006.4 mb - 0.00 in0.0 mm 0.00 in0.0 mm
05:30 PM 63.3°F17.4°C 56.7°F13.7°C 79% 10.4 mph W16.7 kmh W 19.6 mph31.5 kmh 29.72 in1006.4 mb - 0.00 in0.0 mm 0.00 in0.0 mm
05:40 PM 63.1°F17.3°C 56.1°F13.4°C 78% 12.7 mph W20.4 kmh W 20.7 mph33.3 kmh 29.71 in1006.1 mb - 0.00 in0.0 mm 0.00 in0.0 mm
05:50 PM 62.9°F17.2°C 56.3°F13.5°C 79% 12.7 mph W20.4 kmh W 20.7 mph33.3 kmh 29.72 in1006.4 mb - 0.00 in0.0 mm 0.00 in0.0 mm
06:00 PM 62.8°F17.1°C 56.2°F13.4°C 79% 12.7 mph W20.4 kmh W 21.9 mph35.2 kmh 29.71 in1006.1 mb - 0.00 in0.0 mm 0.00 in0.0 mm
06:10 PM 62.5°F16.9°C 55.9°F13.3°C 79% 15.0 mph W24.1 kmh W 23.0 mph37.0 kmh 29.71 in1006.1 mb - 0.00 in0.0 mm 0.00 in0.0 mm
06:20 PM 62.2°F16.8°C 56.0°F13.3°C 80% 11.5 mph NW18.5 kmh NW 19.6 mph31.5 kmh 29.71 in1006.1 mb - 0.00 in0.0 mm 0.00 in0.0 mm
06:30 PM 62.1°F16.7°C 56.2°F13.4°C 81% 8.1 mph W13.0 kmh W 18.4 mph29.6 kmh 29.71 in1006.1 mb - 0.00 in0.0 mm 0.00 in0.0 mm
06:40 PM 62.0°F16.7°C 56.1°F13.4°C 81% 5.8 mph W9.3 kmh W 8.1 mph13.0 kmh 29.72 in1006.4 mb - 0.00 in0.0 mm 0.00 in0.0 mm
06:50 PM 61.8°F16.6°C 55.9°F13.3°C 81% 5.8 mph W9.3 kmh W 11.5 mph18.5 kmh 29.71 in1006.1 mb - 0.00 in0.0 mm 0.00 in0.0 mm
07:00 PM 61.3°F16.3°C 55.4°F13.0°C 81% 8.1 mph WNW13.0 kmh WNW 11.5 mph18.5 kmh 29.71 in1006.1 mb - 0.00 in0.0 mm 0.00 in0.0 mm
07:10 PM 60.7°F15.9°C 55.2°F12.9°C 82% 8.1 mph WSW13.0 kmh WSW 13.8 mph22.2 kmh 29.71 in1006.1 mb - 0.00 in0.0 mm 0.00 in0.0 mm
07:20 PM 60.3°F15.7°C 55.1°F12.8°C 83% 9.2 mph W14.8 kmh W 16.1 mph25.9 kmh 29.71 in1006.1 mb - 0.00 in0.0 mm 0.00 in0.0 mm
07:30 PM 59.9°F15.5°C 54.7°F12.6°C 83% 6.9 mph WNW11.1 kmh WNW 12.7 mph20.4 kmh 29.71 in1006.1 mb - 0.00 in0.0 mm 0.00 in0.0 mm
07:40 PM 59.5°F15.3°C 54.7°F12.6°C 84% 10.4 mph WSW16.7 kmh WSW 16.1 mph25.9 kmh 29.71 in1006.1 mb - 0.00 in0.0 mm 0.00 in0.0 mm
07:50 PM 59.1°F15.1°C 54.3°F12.4°C 84% 8.1 mph W13.0 kmh W 13.8 mph22.2 kmh 29.70 in1005.8 mb - 0.00 in0.0 mm 0.00 in0.0 mm
08:00 PM 59.0°F15.0°C 54.5°F12.5°C 85% 9.2 mph WSW14.8 kmh WSW 13.8 mph22.2 kmh 29.71 in1006.1 mb - 0.00 in0.0 mm 0.00 in0.0 mm
08:10 PM 59.0°F15.0°C 54.5°F12.5°C 85% 9.2 mph W14.8 kmh W 15.0 mph24.1 kmh 29.72 in1006.4 mb - 0.00 in0.0 mm 0.00 in0.0 mm
08:20 PM 59.0°F15.0°C 54.5°F12.5°C 85% 11.5 mph W18.5 kmh W 16.1 mph25.9 kmh 29.72 in1006.4 mb - 0.00 in0.0 mm 0.00 in0.0 mm
08:30 PM 58.8°F14.9°C 54.3°F12.4°C 85% 8.1 mph W13.0 kmh W 16.1 mph25.9 kmh 29.71 in1006.1 mb - 0.00 in0.0 mm 0.00 in0.0 mm
08:40 PM 58.7°F14.8°C 54.2°F12.3°C 85% 5.8 mph W9.3 kmh W 9.2 mph14.8 kmh 29.72 in1006.4 mb - 0.00 in0.0 mm 0.00 in0.0 mm
08:50 PM 58.6°F14.8°C 54.1°F12.3°C 85% 9.2 mph W14.8 kmh W 16.1 mph25.9 kmh 29.72 in1006.4 mb - 0.00 in0.0 mm 0.00 in0.0 mm
09:00 PM 58.3°F14.6°C 53.8°F12.1°C 85% 6.9 mph WNW11.1 kmh WNW 11.5 mph18.5 kmh 29.72 in1006.4 mb - 0.00 in0.0 mm 0.00 in0.0 mm
09:10 PM 58.2°F14.6°C 53.7°F12.1°C 85% 5.8 mph WSW9.3 kmh WSW 11.5 mph18.5 kmh 29.72 in1006.4 mb - 0.00 in0.0 mm 0.00 in0.0 mm
09:20 PM 58.1°F14.5°C 53.6°F12.0°C 85% 5.8 mph W9.3 kmh W 12.7 mph20.4 kmh 29.72 in1006.4 mb - 0.00 in0.0 mm 0.00 in0.0 mm
09:30 PM 58.2°F14.6°C 54.0°F12.2°C 86% 4.6 mph W7.4 kmh W 11.5 mph18.5 kmh 29.73 in1006.8 mb - 0.00 in0.0 mm 0.00 in0.0 mm
09:40 PM 58.4°F14.7°C 54.2°F12.3°C 86% 6.9 mph W11.1 kmh W 11.5 mph18.5 kmh 29.72 in1006.4 mb - 0.00 in0.0 mm 0.00 in0.0 mm
09:50 PM 58.4°F14.7°C 54.2°F12.3°C 86% 5.8 mph W9.3 kmh W 12.7 mph20.4 kmh 29.73 in1006.8 mb - 0.01 in0.3 mm 0.01 in0.3 mm
10:00 PM 57.6°F14.2°C 53.5°F11.9°C 86% 6.9 mph NW11.1 kmh NW 9.2 mph14.8 kmh 29.74 in1007.1 mb - 0.04 in1.0 mm 0.05 in1.3 mm
10:10 PM 56.7°F13.7°C 52.6°F11.4°C 86% 2.3 mph NW3.7 kmh NW 4.6 mph7.4 kmh 29.73 in1006.8 mb - 0.01 in0.3 mm 0.06 in1.5 mm
10:20 PM 56.3°F13.5°C 52.2°F11.2°C 86% 2.3 mph WNW3.7 kmh WNW 5.8 mph9.3 kmh 29.73 in1006.8 mb - 0.01 in0.3 mm 0.07 in1.8 mm
10:30 PM 56.1°F13.4°C 51.9°F11.1°C 86% 4.6 mph WNW7.4 kmh WNW 5.8 mph9.3 kmh 29.74 in1007.1 mb - 0.00 in0.0 mm 0.07 in1.8 mm
10:40 PM 56.0°F13.3°C 51.9°F11.1°C 86% 2.3 mph WNW3.7 kmh WNW 5.8 mph9.3 kmh 29.74 in1007.1 mb - 0.00 in0.0 mm 0.07 in1.8 mm
10:50 PM 55.8°F13.2°C 51.7°F10.9°C 86% 4.6 mph WNW7.4 kmh WNW 5.8 mph9.3 kmh 29.74 in1007.1 mb - 0.00 in0.0 mm 0.07 in1.8 mm
11:00 PM 55.7°F13.2°C 51.6°F10.9°C 86% 3.5 mph WNW5.6 kmh WNW 5.8 mph9.3 kmh 29.75 in1007.5 mb - 0.00 in0.0 mm 0.07 in1.8 mm
11:10 PM 55.3°F12.9°C 51.2°F10.7°C 86% 2.3 mph WNW3.7 kmh WNW 4.6 mph7.4 kmh 29.75 in1007.5 mb - 0.00 in0.0 mm 0.07 in1.8 mm
11:20 PM 54.7°F12.6°C 50.6°F10.3°C 86% 4.6 mph W7.4 kmh W 5.8 mph9.3 kmh 29.76 in1007.8 mb - 0.00 in0.0 mm 0.07 in1.8 mm
11:30 PM 54.6°F12.6°C 50.5°F10.3°C 86% 2.3 mph W3.7 kmh W 5.8 mph9.3 kmh 29.76 in1007.8 mb - 0.00 in0.0 mm 0.07 in1.8 mm
11:40 PM 54.8°F12.7°C 50.7°F10.4°C 86% 4.6 mph WNW7.4 kmh WNW 5.8 mph9.3 kmh 29.76 in1007.8 mb - 0.00 in0.0 mm 0.07 in1.8 mm
11:50 PM 55.0°F12.8°C 50.5°F10.3°C 85% 3.5 mph W5.6 kmh W 8.1 mph13.0 kmh 29.77 in1008.1 mb - 0.00 in0.0 mm 0.07 in1.8 mm